sensor_id;sensor_type;location;lat;lon;timestamp;temperature;humidity
50556;DHT22;36508;52.512;13.450;2024-02-28T00:00:25;5.60;99.90
50556;DHT22;36508;52.512;13.450;2024-02-28T00:02:50;5.60;99.90
50556;DHT22;36508;52.512;13.450;2024-02-28T00:05:16;5.60;99.90
50556;DHT22;36508;52.512;13.450;2024-02-28T00:07:42;5.60;99.90
50556;DHT22;36508;52.512;13.450;2024-02-28T00:10:08;5.60;99.90
50556;DHT22;36508;52.512;13.450;2024-02-28T00:12:33;5.60;99.90
50556;DHT22;36508;52.512;13.450;2024-02-28T00:15:00;5.60;99.90
50556;DHT22;36508;52.512;13.450;2024-02-28T00:17:25;5.60;99.90
50556;DHT22;36508;52.512;13.450;2024-02-28T00:19:51;5.70;99.90
50556;DHT22;36508;52.512;13.450;2024-02-28T00:22:16;5.70;99.90
50556;DHT22;36508;52.512;13.450;2024-02-28T00:24:42;5.70;99.90
50556;DHT22;36508;52.512;13.450;2024-02-28T00:27:07;5.70;99.90
50556;DHT22;36508;52.512;13.450;2024-02-28T00:32:07;5.70;99.90
50556;DHT22;36508;52.512;13.450;2024-02-28T00:34:33;5.70;99.90
50556;DHT22;36508;52.512;13.450;2024-02-28T00:36:59;5.70;99.90
50556;DHT22;36508;52.512;13.450;2024-02-28T00:39:24;5.50;99.90
50556;DHT22;36508;52.512;13.450;2024-02-28T00:41:50;5.50;99.90
50556;DHT22;36508;52.512;13.450;2024-02-28T00:44:15;5.40;99.90
50556;DHT22;36508;52.512;13.450;2024-02-28T00:46:41;5.40;99.90
50556;DHT22;36508;52.512;13.450;2024-02-28T00:49:07;5.50;99.90
50556;DHT22;36508;52.512;13.450;2024-02-28T00:51:32;5.50;99.90
50556;DHT22;36508;52.512;13.450;2024-02-28T00:53:59;5.60;99.90
50556;DHT22;36508;52.512;13.450;2024-02-28T00:56:24;5.60;99.90
50556;DHT22;36508;52.512;13.450;2024-02-28T00:58:51;5.60;99.90
50556;DHT22;36508;52.512;13.450;2024-02-28T01:01:17;5.60;99.90
50556;DHT22;36508;52.512;13.450;2024-02-28T01:03:42;5.50;99.90
50556;DHT22;36508;52.512;13.450;2024-02-28T01:06:08;5.60;99.90
50556;DHT22;36508;52.512;13.450;2024-02-28T01:08:34;5.60;99.90
50556;DHT22;36508;52.512;13.450;2024-02-28T01:10:59;5.50;99.90
50556;DHT22;36508;52.512;13.450;2024-02-28T01:13:25;5.60;99.90
50556;DHT22;36508;52.512;13.450;2024-02-28T01:15:50;5.60;99.90
50556;DHT22;36508;52.512;13.450;2024-02-28T01:18:16;5.70;99.90
50556;DHT22;36508;52.512;13.450;2024-02-28T01:20:41;5.70;99.90
50556;DHT22;36508;52.512;13.450;2024-02-28T01:23:07;5.90;99.90
50556;DHT22;36508;52.512;13.450;2024-02-28T01:25:33;5.80;99.90
50556;DHT22;36508;52.512;13.450;2024-02-28T01:27:58;5.80;99.90
50556;DHT22;36508;52.512;13.450;2024-02-28T01:30:24;5.70;99.90
50556;DHT22;36508;52.512;13.450;2024-02-28T01:32:50;5.60;99.90
50556;DHT22;36508;52.512;13.450;2024-02-28T01:35:15;5.60;99.90
50556;DHT22;36508;52.512;13.450;2024-02-28T01:37:41;5.50;99.90
50556;DHT22;36508;52.512;13.450;2024-02-28T01:40:07;5.50;99.90
50556;DHT22;36508;52.512;13.450;2024-02-28T01:42:33;5.60;99.90
50556;DHT22;36508;52.512;13.450;2024-02-28T01:47:34;5.60;99.90
50556;DHT22;36508;52.512;13.450;2024-02-28T01:50:03;5.50;99.90
50556;DHT22;36508;52.512;13.450;2024-02-28T01:52:29;5.60;99.90
50556;DHT22;36508;52.512;13.450;2024-02-28T01:54:56;5.70;99.90
50556;DHT22;36508;52.512;13.450;2024-02-28T01:57:22;5.80;99.90
50556;DHT22;36508;52.512;13.450;2024-02-28T01:59:48;5.80;99.90
50556;DHT22;36508;52.512;13.450;2024-02-28T02:02:16;5.80;99.90
50556;DHT22;36508;52.512;13.450;2024-02-28T02:04:41;5.90;99.90
50556;DHT22;36508;52.512;13.450;2024-02-28T02:07:07;5.80;99.90
50556;DHT22;36508;52.512;13.450;2024-02-28T02:09:34;5.90;99.90
50556;DHT22;36508;52.512;13.450;2024-02-28T02:12:00;5.80;99.90
50556;DHT22;36508;52.512;13.450;2024-02-28T02:14:25;5.60;99.90
50556;DHT22;36508;52.512;13.450;2024-02-28T02:16:51;5.70;99.90
50556;DHT22;36508;52.512;13.450;2024-02-28T02:19:16;5.80;99.90
50556;DHT22;36508;52.512;13.450;2024-02-28T02:21:50;5.80;99.90
50556;DHT22;36508;52.512;13.450;2024-02-28T03:49:31;5.20;99.90
50556;DHT22;36508;52.512;13.450;2024-02-28T03:51:56;5.20;99.90
50556;DHT22;36508;52.512;13.450;2024-02-28T03:54:22;5.20;99.90
50556;DHT22;36508;52.512;13.450;2024-02-28T03:56:47;5.20;99.90
50556;DHT22;36508;52.512;13.450;2024-02-28T03:59:13;5.20;99.90
50556;DHT22;36508;52.512;13.450;2024-02-28T04:01:38;5.20;99.90
50556;DHT22;36508;52.512;13.450;2024-02-28T04:04:04;5.20;99.90
50556;DHT22;36508;52.512;13.450;2024-02-28T04:06:30;5.20;99.90
50556;DHT22;36508;52.512;13.450;2024-02-28T04:08:55;5.10;99.90
50556;DHT22;36508;52.512;13.450;2024-02-28T04:11:21;5.10;99.90
50556;DHT22;36508;52.512;13.450;2024-02-28T04:13:46;5.10;99.90
50556;DHT22;36508;52.512;13.450;2024-02-28T04:16:12;5.20;99.90
50556;DHT22;36508;52.512;13.450;2024-02-28T04:18:38;5.20;99.90
50556;DHT22;36508;52.512;13.450;2024-02-28T04:21:03;5.30;99.90
50556;DHT22;36508;52.512;13.450;2024-02-28T04:23:29;5.30;99.90
50556;DHT22;36508;52.512;13.450;2024-02-28T04:25:54;5.30;99.90
50556;DHT22;36508;52.512;13.450;2024-02-28T04:28:20;5.20;99.90
50556;DHT22;36508;52.512;13.450;2024-02-28T04:30:45;5.30;99.90
50556;DHT22;36508;52.512;13.450;2024-02-28T04:33:11;5.10;99.90
50556;DHT22;36508;52.512;13.450;2024-02-28T04:35:36;5.20;99.90
50556;DHT22;36508;52.512;13.450;2024-02-28T04:38:02;5.20;99.90
50556;DHT22;36508;52.512;13.450;2024-02-28T04:40:28;5.20;99.90
50556;DHT22;36508;52.512;13.450;2024-02-28T04:42:53;5.20;99.90
50556;DHT22;36508;52.512;13.450;2024-02-28T04:45:19;5.10;99.90
50556;DHT22;36508;52.512;13.450;2024-02-28T04:47:44;5.10;99.90
50556;DHT22;36508;52.512;13.450;2024-02-28T04:50:10;5.10;99.90
50556;DHT22;36508;52.512;13.450;2024-02-28T04:52:36;5.10;99.90
50556;DHT22;36508;52.512;13.450;2024-02-28T04:55:02;5.10;99.90
50556;DHT22;36508;52.512;13.450;2024-02-28T04:57:27;5.10;99.90
50556;DHT22;36508;52.512;13.450;2024-02-28T04:59:53;5.20;99.90
50556;DHT22;36508;52.512;13.450;2024-02-28T05:02:19;5.30;99.90
50556;DHT22;36508;52.512;13.450;2024-02-28T05:04:47;5.20;99.90
50556;DHT22;36508;52.512;13.450;2024-02-28T05:07:13;5.20;99.90
50556;DHT22;36508;52.512;13.450;2024-02-28T05:09:38;5.20;99.90
50556;DHT22;36508;52.512;13.450;2024-02-28T05:12:04;5.20;99.90
50556;DHT22;36508;52.512;13.450;2024-02-28T05:14:29;5.10;99.90
50556;DHT22;36508;52.512;13.450;2024-02-28T05:16:55;5.10;99.90
50556;DHT22;36508;52.512;13.450;2024-02-28T05:19:21;5.20;99.90
50556;DHT22;36508;52.512;13.450;2024-02-28T05:21:46;5.20;99.90
50556;DHT22;36508;52.512;13.450;2024-02-28T05:24:13;5.20;99.90
50556;DHT22;36508;52.512;13.450;2024-02-28T05:26:39;5.10;99.90
50556;DHT22;36508;52.512;13.450;2024-02-28T05:29:05;5.10;99.90
50556;DHT22;36508;52.512;13.450;2024-02-28T05:31:31;5.10;99.90
50556;DHT22;36508;52.512;13.450;2024-02-28T05:33:58;5.10;99.90
50556;DHT22;36508;52.512;13.450;2024-02-28T05:36:26;5.10;99.90
50556;DHT22;36508;52.512;13.450;2024-02-28T05:38:53;5.10;99.90
50556;DHT22;36508;52.512;13.450;2024-02-28T05:41:19;5.20;99.90
50556;DHT22;36508;52.512;13.450;2024-02-28T05:43:45;5.20;99.90
50556;DHT22;36508;52.512;13.450;2024-02-28T05:46:15;5.30;99.90
50556;DHT22;36508;52.512;13.450;2024-02-28T05:48:41;5.20;99.90
50556;DHT22;36508;52.512;13.450;2024-02-28T05:51:07;5.20;99.90
50556;DHT22;36508;52.512;13.450;2024-02-28T05:53:33;5.10;99.90
50556;DHT22;36508;52.512;13.450;2024-02-28T05:56:01;5.10;99.90
50556;DHT22;36508;52.512;13.450;2024-02-28T05:58:27;5.20;99.90
50556;DHT22;36508;52.512;13.450;2024-02-28T06:00:53;5.20;99.90
50556;DHT22;36508;52.512;13.450;2024-02-28T06:03:18;5.20;99.90
50556;DHT22;36508;52.512;13.450;2024-02-28T06:05:44;5.20;99.90
50556;DHT22;36508;52.512;13.450;2024-02-28T06:08:09;5.20;99.90
50556;DHT22;36508;52.512;13.450;2024-02-28T06:10:35;5.20;99.90
50556;DHT22;36508;52.512;13.450;2024-02-28T06:13:02;5.20;99.90
50556;DHT22;36508;52.512;13.450;2024-02-28T06:15:28;5.20;99.90
50556;DHT22;36508;52.512;13.450;2024-02-28T06:17:56;5.20;99.90
50556;DHT22;36508;52.512;13.450;2024-02-28T06:20:22;5.00;99.90
50556;DHT22;36508;52.512;13.450;2024-02-28T06:22:48;4.90;99.90
50556;DHT22;36508;52.512;13.450;2024-02-28T06:25:13;4.90;99.90
50556;DHT22;36508;52.512;13.450;2024-02-28T06:27:44;4.80;99.90
50556;DHT22;36508;52.512;13.450;2024-02-28T06:30:11;4.90;99.90
50556;DHT22;36508;52.512;13.450;2024-02-28T06:32:38;5.00;99.90
50556;DHT22;36508;52.512;13.450;2024-02-28T06:35:04;5.10;99.90
50556;DHT22;36508;52.512;13.450;2024-02-28T06:37:30;5.10;99.90
50556;DHT22;36508;52.512;13.450;2024-02-28T06:39:55;5.00;99.90
50556;DHT22;36508;52.512;13.450;2024-02-28T06:42:21;5.00;99.90
50556;DHT22;36508;52.512;13.450;2024-02-28T06:44:46;4.90;99.90
50556;DHT22;36508;52.512;13.450;2024-02-28T06:47:12;4.90;99.90
50556;DHT22;36508;52.512;13.450;2024-02-28T06:49:37;4.90;99.90
50556;DHT22;36508;52.512;13.450;2024-02-28T06:52:03;4.80;99.90
50556;DHT22;36508;52.512;13.450;2024-02-28T06:54:29;4.80;99.90
50556;DHT22;36508;52.512;13.450;2024-02-28T06:56:55;4.70;99.90
50556;DHT22;36508;52.512;13.450;2024-02-28T06:59:20;4.70;99.90
50556;DHT22;36508;52.512;13.450;2024-02-28T07:01:46;4.80;99.90
50556;DHT22;36508;52.512;13.450;2024-02-28T07:04:12;4.80;99.90
50556;DHT22;36508;52.512;13.450;2024-02-28T07:06:37;4.80;99.90
50556;DHT22;36508;52.512;13.450;2024-02-28T07:09:03;4.80;99.90
50556;DHT22;36508;52.512;13.450;2024-02-28T07:11:29;4.80;99.90
50556;DHT22;36508;52.512;13.450;2024-02-28T07:13:54;4.80;99.90
50556;DHT22;36508;52.512;13.450;2024-02-28T07:16:22;4.80;99.90
50556;DHT22;36508;52.512;13.450;2024-02-28T07:18:48;4.60;99.90
50556;DHT22;36508;52.512;13.450;2024-02-28T07:21:14;4.50;99.90
50556;DHT22;36508;52.512;13.450;2024-02-28T07:23:40;4.50;99.90
50556;DHT22;36508;52.512;13.450;2024-02-28T07:26:06;4.30;99.90
50556;DHT22;36508;52.512;13.450;2024-02-28T07:28:32;4.30;99.90
50556;DHT22;36508;52.512;13.450;2024-02-28T07:30:58;4.30;99.90
50556;DHT22;36508;52.512;13.450;2024-02-28T07:33:23;4.30;99.90
50556;DHT22;36508;52.512;13.450;2024-02-28T07:35:51;4.40;99.90
50556;DHT22;36508;52.512;13.450;2024-02-28T07:38:17;4.40;99.90
50556;DHT22;36508;52.512;13.450;2024-02-28T07:40:45;4.50;99.90
50556;DHT22;36508;52.512;13.450;2024-02-28T07:43:11;4.50;99.90
50556;DHT22;36508;52.512;13.450;2024-02-28T07:45:37;4.60;99.90
50556;DHT22;36508;52.512;13.450;2024-02-28T07:48:02;4.50;99.90
50556;DHT22;36508;52.512;13.450;2024-02-28T07:50:28;4.50;99.90
50556;DHT22;36508;52.512;13.450;2024-02-28T07:52:55;4.40;99.90
50556;DHT22;36508;52.512;13.450;2024-02-28T07:55:21;4.30;99.90
50556;DHT22;36508;52.512;13.450;2024-02-28T07:57:51;4.30;99.90
50556;DHT22;36508;52.512;13.450;2024-02-28T08:00:16;4.20;99.90
50556;DHT22;36508;52.512;13.450;2024-02-28T08:02:44;4.20;99.90
50556;DHT22;36508;52.512;13.450;2024-02-28T08:05:10;4.30;99.90
50556;DHT22;36508;52.512;13.450;2024-02-28T08:07:35;4.40;99.90
50556;DHT22;36508;52.512;13.450;2024-02-28T08:10:02;4.40;99.90
50556;DHT22;36508;52.512;13.450;2024-02-28T08:12:30;4.60;99.90
50556;DHT22;36508;52.512;13.450;2024-02-28T08:14:56;4.70;99.90
50556;DHT22;36508;52.512;13.450;2024-02-28T08:17:21;4.70;99.90
50556;DHT22;36508;52.512;13.450;2024-02-28T08:19:47;4.70;99.90
50556;DHT22;36508;52.512;13.450;2024-02-28T08:22:13;4.70;99.90
50556;DHT22;36508;52.512;13.450;2024-02-28T08:24:38;4.60;99.90
50556;DHT22;36508;52.512;13.450;2024-02-28T08:27:04;4.70;99.90
50556;DHT22;36508;52.512;13.450;2024-02-28T08:29:30;4.40;99.90
50556;DHT22;36508;52.512;13.450;2024-02-28T08:31:57;4.40;99.90
50556;DHT22;36508;52.512;13.450;2024-02-28T08:34:23;4.30;99.90
50556;DHT22;36508;52.512;13.450;2024-02-28T08:36:49;4.30;99.90
50556;DHT22;36508;52.512;13.450;2024-02-28T08:39:15;4.20;99.90
50556;DHT22;36508;52.512;13.450;2024-02-28T08:41:40;4.30;99.90
50556;DHT22;36508;52.512;13.450;2024-02-28T08:44:06;4.30;99.90
50556;DHT22;36508;52.512;13.450;2024-02-28T08:46:31;4.30;99.90
50556;DHT22;36508;52.512;13.450;2024-02-28T08:48:57;4.30;99.90
50556;DHT22;36508;52.512;13.450;2024-02-28T08:51:23;4.40;99.90
50556;DHT22;36508;52.512;13.450;2024-02-28T08:53:49;4.40;99.90
50556;DHT22;36508;52.512;13.450;2024-02-28T08:56:15;4.30;99.90
50556;DHT22;36508;52.512;13.450;2024-02-28T08:58:40;4.30;99.90
50556;DHT22;36508;52.512;13.450;2024-02-28T09:01:06;4.30;99.90
50556;DHT22;36508;52.512;13.450;2024-02-28T09:03:32;4.40;99.90
50556;DHT22;36508;52.512;13.450;2024-02-28T09:05:57;4.50;99.90
50556;DHT22;36508;52.512;13.450;2024-02-28T09:08:23;4.50;99.90
50556;DHT22;36508;52.512;13.450;2024-02-28T09:10:48;4.60;99.90
50556;DHT22;36508;52.512;13.450;2024-02-28T09:13:14;4.70;99.90
50556;DHT22;36508;52.512;13.450;2024-02-28T09:15:39;4.70;99.90
50556;DHT22;36508;52.512;13.450;2024-02-28T09:18:05;4.70;99.90
50556;DHT22;36508;52.512;13.450;2024-02-28T09:20:31;4.80;99.90
50556;DHT22;36508;52.512;13.450;2024-02-28T09:59:56;4.60;99.90
50556;DHT22;36508;52.512;13.450;2024-02-28T10:02:23;4.60;99.90
50556;DHT22;36508;52.512;13.450;2024-02-28T10:04:49;4.60;99.90
50556;DHT22;36508;52.512;13.450;2024-02-28T10:07:16;4.60;99.90
50556;DHT22;36508;52.512;13.450;2024-02-28T10:09:42;4.50;99.90
50556;DHT22;36508;52.512;13.450;2024-02-28T10:12:08;4.40;99.90
50556;DHT22;36508;52.512;13.450;2024-02-28T10:14:33;4.30;99.90
50556;DHT22;36508;52.512;13.450;2024-02-28T10:16:59;4.20;99.90
50556;DHT22;36508;52.512;13.450;2024-02-28T10:19:25;4.20;99.90
50556;DHT22;36508;52.512;13.450;2024-02-28T10:21:51;4.30;99.90
50556;DHT22;36508;52.512;13.450;2024-02-28T10:24:16;4.40;99.90
50556;DHT22;36508;52.512;13.450;2024-02-28T10:26:46;4.30;99.90
50556;DHT22;36508;52.512;13.450;2024-02-28T10:29:24;4.40;99.90
50556;DHT22;36508;52.512;13.450;2024-02-28T10:31:50;4.50;99.90
50556;DHT22;36508;52.512;13.450;2024-02-28T10:34:19;4.50;99.90
50556;DHT22;36508;52.512;13.450;2024-02-28T10:36:45;4.40;99.90
50556;DHT22;36508;52.512;13.450;2024-02-28T10:39:12;4.40;99.90
50556;DHT22;36508;52.512;13.450;2024-02-28T10:41:38;4.50;99.90
50556;DHT22;36508;52.512;13.450;2024-02-28T10:44:04;4.50;99.90
50556;DHT22;36508;52.512;13.450;2024-02-28T10:46:30;4.70;99.90
50556;DHT22;36508;52.512;13.450;2024-02-28T10:48:56;4.80;99.90
50556;DHT22;36508;52.512;13.450;2024-02-28T10:51:26;4.80;99.90
50556;DHT22;36508;52.512;13.450;2024-02-28T10:54:07;4.80;99.90
50556;DHT22;36508;52.512;13.450;2024-02-28T10:56:33;4.90;99.90
50556;DHT22;36508;52.512;13.450;2024-02-28T10:58:59;4.90;99.90
50556;DHT22;36508;52.512;13.450;2024-02-28T11:01:25;4.80;99.90
50556;DHT22;36508;52.512;13.450;2024-02-28T11:03:51;4.80;99.90
50556;DHT22;36508;52.512;13.450;2024-02-28T11:06:18;4.90;99.90
50556;DHT22;36508;52.512;13.450;2024-02-28T11:08:47;5.00;99.90
50556;DHT22;36508;52.512;13.450;2024-02-28T11:11:18;4.90;99.90
50556;DHT22;36508;52.512;13.450;2024-02-28T11:13:57;4.70;99.90
50556;DHT22;36508;52.512;13.450;2024-02-28T11:16:30;4.70;99.90
50556;DHT22;36508;52.512;13.450;2024-02-28T11:18:56;4.70;99.90
50556;DHT22;36508;52.512;13.450;2024-02-28T11:21:29;4.90;99.90
50556;DHT22;36508;52.512;13.450;2024-02-28T11:24:01;5.00;99.90
50556;DHT22;36508;52.512;13.450;2024-02-28T11:26:27;4.80;99.90
50556;DHT22;36508;52.512;13.450;2024-02-28T11:28:56;4.70;99.90
50556;DHT22;36508;52.512;13.450;2024-02-28T11:31:22;4.80;99.90
50556;DHT22;36508;52.512;13.450;2024-02-28T11:33:48;4.90;99.90
50556;DHT22;36508;52.512;13.450;2024-02-28T11:36:14;5.00;99.90
50556;DHT22;36508;52.512;13.450;2024-02-28T11:38:40;5.10;99.90
50556;DHT22;36508;52.512;13.450;2024-02-28T11:41:07;5.20;99.90
50556;DHT22;36508;52.512;13.450;2024-02-28T11:43:33;5.30;99.90
50556;DHT22;36508;52.512;13.450;2024-02-28T11:46:00;5.50;99.90
50556;DHT22;36508;52.512;13.450;2024-02-28T11:48:26;5.50;99.90
50556;DHT22;36508;52.512;13.450;2024-02-28T11:50:56;5.40;99.90
50556;DHT22;36508;52.512;13.450;2024-02-28T11:53:22;5.50;99.90
50556;DHT22;36508;52.512;13.450;2024-02-28T11:55:48;5.50;99.90
50556;DHT22;36508;52.512;13.450;2024-02-28T11:58:14;5.50;99.90
50556;DHT22;36508;52.512;13.450;2024-02-28T12:00:49;5.50;99.90
50556;DHT22;36508;52.512;13.450;2024-02-28T12:03:23;5.40;99.90
50556;DHT22;36508;52.512;13.450;2024-02-28T12:05:50;5.40;99.90
50556;DHT22;36508;52.512;13.450;2024-02-28T12:08:19;5.50;99.90
50556;DHT22;36508;52.512;13.450;2024-02-28T12:10:48;5.10;99.90
50556;DHT22;36508;52.512;13.450;2024-02-28T12:13:17;4.90;99.90
50556;DHT22;36508;52.512;13.450;2024-02-28T12:15:43;4.80;99.90
50556;DHT22;36508;52.512;13.450;2024-02-28T12:18:10;4.80;99.90
50556;DHT22;36508;52.512;13.450;2024-02-28T12:20:36;4.90;99.90
50556;DHT22;36508;52.512;13.450;2024-02-28T12:23:05;5.10;99.90
50556;DHT22;36508;52.512;13.450;2024-02-28T12:25:31;5.10;99.90
50556;DHT22;36508;52.512;13.450;2024-02-28T12:27:56;5.30;99.90
50556;DHT22;36508;52.512;13.450;2024-02-28T12:30:22;5.10;99.90
50556;DHT22;36508;52.512;13.450;2024-02-28T12:32:47;5.00;99.90
50556;DHT22;36508;52.512;13.450;2024-02-28T12:35:13;5.20;99.90
50556;DHT22;36508;52.512;13.450;2024-02-28T12:37:39;5.20;99.90
50556;DHT22;36508;52.512;13.450;2024-02-28T12:40:06;5.30;99.90
50556;DHT22;36508;52.512;13.450;2024-02-28T12:42:32;5.50;99.90
50556;DHT22;36508;52.512;13.450;2024-02-28T12:44:58;5.80;99.90
50556;DHT22;36508;52.512;13.450;2024-02-28T12:47:23;6.00;99.90
50556;DHT22;36508;52.512;13.450;2024-02-28T12:49:49;6.00;99.90
50556;DHT22;36508;52.512;13.450;2024-02-28T12:52:15;6.00;99.90
50556;DHT22;36508;52.512;13.450;2024-02-28T12:54:40;5.90;99.90
50556;DHT22;36508;52.512;13.450;2024-02-28T12:57:06;6.00;99.90
50556;DHT22;36508;52.512;13.450;2024-02-28T12:59:33;5.80;99.90
50556;DHT22;36508;52.512;13.450;2024-02-28T13:01:59;5.70;99.90
50556;DHT22;36508;52.512;13.450;2024-02-28T13:04:25;5.70;99.90
50556;DHT22;36508;52.512;13.450;2024-02-28T13:06:54;5.90;99.90
50556;DHT22;36508;52.512;13.450;2024-02-28T13:09:19;6.10;99.90
50556;DHT22;36508;52.512;13.450;2024-02-28T13:11:47;6.10;99.90
50556;DHT22;36508;52.512;13.450;2024-02-28T13:14:13;6.30;99.90
50556;DHT22;36508;52.512;13.450;2024-02-28T13:16:39;7.20;99.90
50556;DHT22;36508;52.512;13.450;2024-02-28T13:19:04;8.30;99.90
50556;DHT22;36508;52.512;13.450;2024-02-28T13:21:30;8.40;99.90
50556;DHT22;36508;52.512;13.450;2024-02-28T13:23:58;8.50;99.90
50556;DHT22;36508;52.512;13.450;2024-02-28T13:26:24;8.50;99.90
50556;DHT22;36508;52.512;13.450;2024-02-28T13:28:49;8.90;99.90
50556;DHT22;36508;52.512;13.450;2024-02-28T13:31:15;9.00;99.90
50556;DHT22;36508;52.512;13.450;2024-02-28T13:33:41;9.20;99.90
50556;DHT22;36508;52.512;13.450;2024-02-28T13:36:07;8.70;99.90
50556;DHT22;36508;52.512;13.450;2024-02-28T13:38:33;8.30;99.90
50556;DHT22;36508;52.512;13.450;2024-02-28T13:40:59;7.90;99.90
50556;DHT22;36508;52.512;13.450;2024-02-28T13:43:25;7.60;99.90
50556;DHT22;36508;52.512;13.450;2024-02-28T13:45:50;7.50;99.90
50556;DHT22;36508;52.512;13.450;2024-02-28T13:48:25;8.00;99.90
50556;DHT22;36508;52.512;13.450;2024-02-28T13:50:52;7.80;99.90
50556;DHT22;36508;52.512;13.450;2024-02-28T13:53:18;7.70;99.90
50556;DHT22;36508;52.512;13.450;2024-02-28T13:55:47;7.80;99.90
50556;DHT22;36508;52.512;13.450;2024-02-28T13:58:13;8.20;99.90
50556;DHT22;36508;52.512;13.450;2024-02-28T14:00:39;8.10;99.90
50556;DHT22;36508;52.512;13.450;2024-02-28T14:03:05;7.90;99.90
50556;DHT22;36508;52.512;13.450;2024-02-28T14:05:34;8.40;99.90
50556;DHT22;36508;52.512;13.450;2024-02-28T14:07:59;8.90;99.90
50556;DHT22;36508;52.512;13.450;2024-02-28T14:10:26;9.20;99.90
50556;DHT22;36508;52.512;13.450;2024-02-28T14:12:52;9.10;99.90
50556;DHT22;36508;52.512;13.450;2024-02-28T14:15:21;9.00;99.90
50556;DHT22;36508;52.512;13.450;2024-02-28T14:17:47;8.70;99.90
50556;DHT22;36508;52.512;13.450;2024-02-28T14:20:13;10.00;99.90
50556;DHT22;36508;52.512;13.450;2024-02-28T14:22:39;11.70;99.90
50556;DHT22;36508;52.512;13.450;2024-02-28T14:25:11;12.20;99.90
50556;DHT22;36508;52.512;13.450;2024-02-28T14:27:37;12.50;99.90
50556;DHT22;36508;52.512;13.450;2024-02-28T14:30:03;12.50;99.90
50556;DHT22;36508;52.512;13.450;2024-02-28T14:32:33;12.60;99.90
50556;DHT22;36508;52.512;13.450;2024-02-28T14:34:59;13.60;99.90
50556;DHT22;36508;52.512;13.450;2024-02-28T14:37:24;14.20;99.90
50556;DHT22;36508;52.512;13.450;2024-02-28T14:39:50;14.30;99.90
50556;DHT22;36508;52.512;13.450;2024-02-28T14:42:15;13.50;99.90
50556;DHT22;36508;52.512;13.450;2024-02-28T14:44:41;12.90;99.90
50556;DHT22;36508;52.512;13.450;2024-02-28T14:47:06;12.60;99.90
50556;DHT22;36508;52.512;13.450;2024-02-28T14:49:32;12.60;99.90
50556;DHT22;36508;52.512;13.450;2024-02-28T14:51:58;13.20;99.90
50556;DHT22;36508;52.512;13.450;2024-02-28T14:54:25;13.70;99.90
50556;DHT22;36508;52.512;13.450;2024-02-28T14:56:52;14.10;99.90
50556;DHT22;36508;52.512;13.450;2024-02-28T14:59:18;13.60;99.90
50556;DHT22;36508;52.512;13.450;2024-02-28T15:01:43;13.60;99.90
50556;DHT22;36508;52.512;13.450;2024-02-28T15:04:12;12.70;99.90
50556;DHT22;36508;52.512;13.450;2024-02-28T15:06:41;11.30;99.90
50556;DHT22;36508;52.512;13.450;2024-02-28T15:09:07;9.90;99.90
50556;DHT22;36508;52.512;13.450;2024-02-28T15:11:33;9.20;99.90
50556;DHT22;36508;52.512;13.450;2024-02-28T15:13:58;8.80;99.90
50556;DHT22;36508;52.512;13.450;2024-02-28T15:16:24;8.50;99.90
50556;DHT22;36508;52.512;13.450;2024-02-28T15:18:50;8.30;99.90
50556;DHT22;36508;52.512;13.450;2024-02-28T15:21:15;8.00;99.90
50556;DHT22;36508;52.512;13.450;2024-02-28T15:23:41;7.90;99.90
50556;DHT22;36508;52.512;13.450;2024-02-28T15:26:07;7.90;99.90
50556;DHT22;36508;52.512;13.450;2024-02-28T15:28:32;7.60;99.90
50556;DHT22;36508;52.512;13.450;2024-02-28T15:30:58;7.30;99.90
50556;DHT22;36508;52.512;13.450;2024-02-28T15:33:24;7.30;99.90
50556;DHT22;36508;52.512;13.450;2024-02-28T15:35:49;7.30;99.90
50556;DHT22;36508;52.512;13.450;2024-02-28T15:38:15;7.20;99.90
50556;DHT22;36508;52.512;13.450;2024-02-28T15:40:41;7.00;99.90
50556;DHT22;36508;52.512;13.450;2024-02-28T15:43:07;6.90;99.90
50556;DHT22;36508;52.512;13.450;2024-02-28T15:45:33;6.80;99.90
50556;DHT22;36508;52.512;13.450;2024-02-28T15:47:59;6.80;99.90
50556;DHT22;36508;52.512;13.450;2024-02-28T15:50:26;6.60;99.90
50556;DHT22;36508;52.512;13.450;2024-02-28T15:52:52;6.60;99.90
50556;DHT22;36508;52.512;13.450;2024-02-28T15:55:18;6.60;99.90
50556;DHT22;36508;52.512;13.450;2024-02-28T15:57:45;6.60;99.90
50556;DHT22;36508;52.512;13.450;2024-02-28T16:00:11;6.70;99.90
50556;DHT22;36508;52.512;13.450;2024-02-28T16:02:37;6.60;99.90
50556;DHT22;36508;52.512;13.450;2024-02-28T16:07:44;6.70;99.90
50556;DHT22;36508;52.512;13.450;2024-02-28T16:10:09;6.70;99.90
50556;DHT22;36508;52.512;13.450;2024-02-28T16:12:36;6.70;99.90
50556;DHT22;36508;52.512;13.450;2024-02-28T16:15:01;6.60;99.90
50556;DHT22;36508;52.512;13.450;2024-02-28T16:17:28;6.60;99.90
50556;DHT22;36508;52.512;13.450;2024-02-28T16:19:54;6.60;99.90
50556;DHT22;36508;52.512;13.450;2024-02-28T16:22:20;6.50;99.90
50556;DHT22;36508;52.512;13.450;2024-02-28T16:24:46;6.40;99.90
50556;DHT22;36508;52.512;13.450;2024-02-28T16:27:12;6.40;99.90
50556;DHT22;36508;52.512;13.450;2024-02-28T16:29:37;6.40;99.90
50556;DHT22;36508;52.512;13.450;2024-02-28T16:32:03;6.30;99.90
50556;DHT22;36508;52.512;13.450;2024-02-28T16:34:29;6.30;99.90
50556;DHT22;36508;52.512;13.450;2024-02-28T16:36:54;6.10;99.90
50556;DHT22;36508;52.512;13.450;2024-02-28T16:39:21;6.20;99.90
50556;DHT22;36508;52.512;13.450;2024-02-28T16:41:47;6.20;99.90
50556;DHT22;36508;52.512;13.450;2024-02-28T16:44:12;6.20;99.90
50556;DHT22;36508;52.512;13.450;2024-02-28T16:46:38;6.10;99.90
50556;DHT22;36508;52.512;13.450;2024-02-28T16:49:04;6.20;99.90
50556;DHT22;36508;52.512;13.450;2024-02-28T16:51:29;6.10;99.90
50556;DHT22;36508;52.512;13.450;2024-02-28T16:53:55;6.00;99.90
50556;DHT22;36508;52.512;13.450;2024-02-28T16:56:22;5.70;99.90
50556;DHT22;36508;52.512;13.450;2024-02-28T16:58:47;5.80;99.90
50556;DHT22;36508;52.512;13.450;2024-02-28T17:01:13;5.80;99.90
50556;DHT22;36508;52.512;13.450;2024-02-28T17:03:39;5.80;99.90
50556;DHT22;36508;52.512;13.450;2024-02-28T17:06:05;5.70;99.90
50556;DHT22;36508;52.512;13.450;2024-02-28T17:08:31;5.70;99.90
50556;DHT22;36508;52.512;13.450;2024-02-28T17:11:00;5.70;99.90
50556;DHT22;36508;52.512;13.450;2024-02-28T17:13:27;5.70;99.90
50556;DHT22;36508;52.512;13.450;2024-02-28T17:15:52;5.60;99.90
50556;DHT22;36508;52.512;13.450;2024-02-28T17:18:30;5.70;99.90
50556;DHT22;36508;52.512;13.450;2024-02-28T17:20:56;5.30;99.90
50556;DHT22;36508;52.512;13.450;2024-02-28T17:23:22;5.20;99.90
50556;DHT22;36508;52.512;13.450;2024-02-28T17:25:53;5.10;99.90
50556;DHT22;36508;52.512;13.450;2024-02-28T17:28:19;4.90;99.90
50556;DHT22;36508;52.512;13.450;2024-02-28T17:30:45;5.00;99.90
50556;DHT22;36508;52.512;13.450;2024-02-28T17:33:11;4.80;99.90